FDX5062 KSLC-KBOI
Flight info
| Callsign | FDX5062 |
|---|---|
| Flight time | 0h 59m |
| Altitude | 32000 |
| Route | CGULL1 TWF BROPH SPUUD4 |
| Aircraft | B738/M-SDE2E3FGHIRWXY/LB1 |
Departure
| Time | 2026-05-06 22:56 |
|---|---|
| Airport | Salt Lake City International Airport (KSLC) |
Arrival
| Time | 2026-05-06 23:55 |
|---|---|
| Airport | Boise Air Terminal/Gowen Field (KBOI) |
| Time | Latitude | Longitude | Altitude | Speed | Heading |
|---|---|---|---|---|---|
| 2026-05-06 22:24 | 40.80530 | -111.98429 | 4230 ft | 0 kts | 175° |
| 2026-05-06 22:42 | 40.80534 | -111.98429 | 4230 ft | 3 kts | 176° |
| 2026-05-06 22:42 | 40.80558 | -111.98431 | 4230 ft | 4 kts | 178° |
| 2026-05-06 22:43 | 40.80585 | -111.98431 | 4230 ft | 4 kts | 179° |
| 2026-05-06 22:43 | 40.80601 | -111.98428 | 4230 ft | 4 kts | 98° |
| 2026-05-06 22:43 | 40.80601 | -111.98426 | 4230 ft | 1 kts | 85° |
| 2026-05-06 22:45 | 40.80603 | -111.98406 | 4230 ft | 8 kts | 84° |
| 2026-05-06 22:45 | 40.80612 | -111.98282 | 4230 ft | 19 kts | 85° |
| 2026-05-06 22:45 | 40.80624 | -111.98093 | 4230 ft | 19 kts | 92° |
| 2026-05-06 22:46 | 40.80526 | -111.98008 | 4230 ft | 18 kts | 174° |
| 2026-05-06 22:46 | 40.80402 | -111.97992 | 4230 ft | 18 kts | 173° |
| 2026-05-06 22:46 | 40.80285 | -111.97957 | 4230 ft | 17 kts | 160° |
| 2026-05-06 22:46 | 40.80210 | -111.97936 | 4229 ft | 10 kts | 174° |
| 2026-05-06 22:47 | 40.80143 | -111.97930 | 4230 ft | 10 kts | 179° |
| 2026-05-06 22:47 | 40.80077 | -111.97926 | 4230 ft | 9 kts | 164° |
| 2026-05-06 22:47 | 40.80050 | -111.97851 | 4230 ft | 9 kts | 123° |
| 2026-05-06 22:47 | 40.79991 | -111.97824 | 4230 ft | 9 kts | 173° |
| 2026-05-06 22:48 | 40.79930 | -111.97817 | 4230 ft | 9 kts | 173° |
| 2026-05-06 22:48 | 40.79861 | -111.97807 | 4230 ft | 14 kts | 174° |
| 2026-05-06 22:48 | 40.79740 | -111.97791 | 4229 ft | 19 kts | 174° |
| 2026-05-06 22:48 | 40.79612 | -111.97775 | 4229 ft | 18 kts | 175° |
| 2026-05-06 22:49 | 40.79489 | -111.97761 | 4229 ft | 17 kts | 177° |
| 2026-05-06 22:49 | 40.79371 | -111.97751 | 4229 ft | 17 kts | 173° |
| 2026-05-06 22:49 | 40.79257 | -111.97733 | 4230 ft | 16 kts | 176° |
| 2026-05-06 22:49 | 40.79147 | -111.97725 | 4230 ft | 16 kts | 175° |
| 2026-05-06 22:50 | 40.79040 | -111.97714 | 4230 ft | 15 kts | 175° |
| 2026-05-06 22:50 | 40.78935 | -111.97701 | 4229 ft | 17 kts | 176° |
| 2026-05-06 22:50 | 40.78814 | -111.97685 | 4230 ft | 18 kts | 171° |
| 2026-05-06 22:50 | 40.78690 | -111.97664 | 4230 ft | 19 kts | 173° |
| 2026-05-06 22:51 | 40.78560 | -111.97650 | 4229 ft | 19 kts | 175° |
| 2026-05-06 22:51 | 40.78428 | -111.97638 | 4230 ft | 19 kts | 176° |
| 2026-05-06 22:51 | 40.78301 | -111.97624 | 4230 ft | 18 kts | 174° |
| 2026-05-06 22:51 | 40.78180 | -111.97610 | 4229 ft | 17 kts | 175° |
| 2026-05-06 22:52 | 40.78061 | -111.97597 | 4229 ft | 17 kts | 176° |
| 2026-05-06 22:52 | 40.77948 | -111.97578 | 4230 ft | 16 kts | 161° |
| 2026-05-06 22:52 | 40.77844 | -111.97525 | 4230 ft | 16 kts | 169° |
| 2026-05-06 22:52 | 40.77735 | -111.97508 | 4230 ft | 15 kts | 173° |
| 2026-05-06 22:53 | 40.77631 | -111.97498 | 4230 ft | 15 kts | 176° |
| 2026-05-06 22:53 | 40.77531 | -111.97487 | 4230 ft | 14 kts | 176° |
| 2026-05-06 22:53 | 40.77474 | -111.97474 | 4230 ft | 2 kts | 154° |
| 2026-05-06 22:53 | 40.77464 | -111.97464 | 4230 ft | 2 kts | 134° |
| 2026-05-06 22:54 | 40.77458 | -111.97452 | 4230 ft | 2 kts | 121° |
| 2026-05-06 22:54 | 40.77455 | -111.97427 | 4230 ft | 3 kts | 85° |
| 2026-05-06 22:54 | 40.77466 | -111.97390 | 4230 ft | 7 kts | 63° |
| 2026-05-06 22:54 | 40.77498 | -111.97330 | 4230 ft | 8 kts | 37° |
| 2026-05-06 22:55 | 40.77555 | -111.97328 | 4230 ft | 8 kts | 353° |
| 2026-05-06 22:55 | 40.77756 | -111.97356 | 4230 ft | 66 kts | 354° |
| 2026-05-06 22:55 | 40.78478 | -111.97442 | 4230 ft | 140 kts | 354° |
| 2026-05-06 22:55 | 40.79640 | -111.97567 | 4427 ft | 184 kts | 355° |
| 2026-05-06 22:56 | 40.80870 | -111.97695 | 5561 ft | 168 kts | 353° |
| 2026-05-06 22:56 | 40.82011 | -111.97871 | 6550 ft | 168 kts | 342° |
| 2026-05-06 22:56 | 40.83038 | -111.98760 | 6925 ft | 194 kts | 306° |
| 2026-05-06 22:56 | 40.83622 | -112.00504 | 7143 ft | 218 kts | 289° |
| 2026-05-06 22:57 | 40.84142 | -112.02464 | 7367 ft | 241 kts | 290° |
| 2026-05-06 22:57 | 40.84732 | -112.04590 | 7836 ft | 250 kts | 292° |
| 2026-05-06 22:57 | 40.85620 | -112.06568 | 8411 ft | 253 kts | 310° |
| 2026-05-06 22:57 | 40.86789 | -112.08303 | 9022 ft | 255 kts | 310° |
| 2026-05-06 22:58 | 40.87930 | -112.10112 | 9556 ft | 258 kts | 309° |
| 2026-05-06 22:58 | 40.89059 | -112.11953 | 10182 ft | 257 kts | 309° |
| 2026-05-06 22:58 | 40.90171 | -112.13795 | 10853 ft | 256 kts | 309° |
| 2026-05-06 22:58 | 40.91275 | -112.15646 | 11428 ft | 257 kts | 309° |
| 2026-05-06 22:59 | 40.92361 | -112.17481 | 11993 ft | 257 kts | 309° |
| 2026-05-06 22:59 | 40.93463 | -112.19353 | 12557 ft | 259 kts | 310° |
| 2026-05-06 22:59 | 40.94594 | -112.21280 | 12802 ft | 276 kts | 310° |
| 2026-05-06 22:59 | 40.95819 | -112.23371 | 12962 ft | 301 kts | 310° |
| 2026-05-06 23:00 | 40.97150 | -112.25647 | 13161 ft | 324 kts | 310° |
| 2026-05-06 23:00 | 40.98562 | -112.28069 | 13557 ft | 339 kts | 309° |
| 2026-05-06 23:00 | 41.00008 | -112.30558 | 14273 ft | 343 kts | 310° |
| 2026-05-06 23:00 | 41.01468 | -112.33074 | 15018 ft | 346 kts | 310° |
| 2026-05-06 23:01 | 41.02939 | -112.35607 | 15743 ft | 349 kts | 310° |
| 2026-05-06 23:01 | 41.04403 | -112.38131 | 16492 ft | 350 kts | 311° |
| 2026-05-06 23:01 | 41.05902 | -112.40690 | 17178 ft | 354 kts | 313° |
| 2026-05-06 23:01 | 41.07617 | -112.43013 | 17850 ft | 352 kts | 323° |
| 2026-05-06 23:02 | 41.09611 | -112.44891 | 18522 ft | 352 kts | 331° |
| 2026-05-06 23:02 | 41.11707 | -112.46582 | 19162 ft | 355 kts | 331° |
| 2026-05-06 23:02 | 41.13813 | -112.48325 | 19772 ft | 359 kts | 330° |
| 2026-05-06 23:02 | 41.15934 | -112.50103 | 20361 ft | 362 kts | 330° |
| 2026-05-06 23:03 | 41.18040 | -112.51948 | 20971 ft | 366 kts | 327° |
| 2026-05-06 23:03 | 41.20047 | -112.53984 | 21506 ft | 370 kts | 325° |
| 2026-05-06 23:03 | 41.22070 | -112.56108 | 22047 ft | 372 kts | 325° |
| 2026-05-06 23:03 | 41.24122 | -112.58236 | 22566 ft | 375 kts | 326° |
| 2026-05-06 23:04 | 41.26192 | -112.60355 | 23090 ft | 377 kts | 326° |
| 2026-05-06 23:04 | 41.28248 | -112.62561 | 23568 ft | 383 kts | 321° |
| 2026-05-06 23:04 | 41.30098 | -112.65157 | 24032 ft | 389 kts | 316° |
| 2026-05-06 23:04 | 41.31883 | -112.67866 | 24522 ft | 391 kts | 316° |
| 2026-05-06 23:05 | 41.33699 | -112.70576 | 24976 ft | 393 kts | 316° |
| 2026-05-06 23:05 | 41.35535 | -112.73283 | 25428 ft | 395 kts | 317° |
| 2026-05-06 23:05 | 41.37368 | -112.75965 | 25840 ft | 398 kts | 317° |
| 2026-05-06 23:05 | 41.39234 | -112.78695 | 26243 ft | 400 kts | 317° |
| 2026-05-06 23:06 | 41.41102 | -112.81450 | 26660 ft | 402 kts | 316° |
| 2026-05-06 23:06 | 41.42960 | -112.84260 | 27040 ft | 405 kts | 316° |
| 2026-05-06 23:06 | 41.44817 | -112.87103 | 27398 ft | 408 kts | 316° |
| 2026-05-06 23:06 | 41.46678 | -112.89965 | 27734 ft | 411 kts | 316° |
| 2026-05-06 23:07 | 41.48550 | -112.92846 | 28103 ft | 412 kts | 316° |
| 2026-05-06 23:07 | 41.50433 | -112.95743 | 28474 ft | 413 kts | 316° |
| 2026-05-06 23:07 | 41.52313 | -112.98636 | 28989 ft | 411 kts | 316° |
| 2026-05-06 23:07 | 41.54153 | -113.01468 | 29532 ft | 407 kts | 316° |
| 2026-05-06 23:08 | 41.56004 | -113.04317 | 29999 ft | 406 kts | 316° |
| 2026-05-06 23:08 | 41.57852 | -113.07160 | 30425 ft | 405 kts | 316° |
| 2026-05-06 23:08 | 41.59700 | -113.10006 | 30830 ft | 405 kts | 316° |
| 2026-05-06 23:08 | 41.61539 | -113.12841 | 31277 ft | 403 kts | 316° |
| 2026-05-06 23:09 | 41.63372 | -113.15668 | 31669 ft | 402 kts | 316° |
| 2026-05-06 23:09 | 41.65202 | -113.18493 | 32019 ft | 402 kts | 316° |
| 2026-05-06 23:09 | 41.67041 | -113.21332 | 32116 ft | 405 kts | 316° |
| 2026-05-06 23:10 | 41.70697 | -113.26992 | 32140 ft | 403 kts | 316° |
| 2026-05-06 23:10 | 41.74342 | -113.32647 | 32136 ft | 401 kts | 316° |
| 2026-05-06 23:11 | 41.77981 | -113.38298 | 32137 ft | 400 kts | 316° |
| 2026-05-06 23:11 | 41.81614 | -113.43951 | 32135 ft | 401 kts | 315° |
| 2026-05-06 23:12 | 41.85225 | -113.49583 | 32124 ft | 400 kts | 315° |
| 2026-05-06 23:12 | 41.88846 | -113.55251 | 32132 ft | 401 kts | 316° |
| 2026-05-06 23:13 | 41.92479 | -113.60935 | 32117 ft | 402 kts | 315° |
| 2026-05-06 23:13 | 41.96117 | -113.66636 | 32121 ft | 402 kts | 315° |
| 2026-05-06 23:14 | 41.99725 | -113.72311 | 32120 ft | 402 kts | 315° |
| 2026-05-06 23:14 | 42.03356 | -113.78022 | 32121 ft | 402 kts | 315° |
| 2026-05-06 23:15 | 42.06977 | -113.83734 | 32118 ft | 401 kts | 315° |
| 2026-05-06 23:15 | 42.10591 | -113.89450 | 32131 ft | 401 kts | 315° |
| 2026-05-06 23:16 | 42.14205 | -113.95171 | 32119 ft | 401 kts | 315° |
| 2026-05-06 23:16 | 42.17793 | -114.00860 | 32108 ft | 401 kts | 315° |
| 2026-05-06 23:17 | 42.21403 | -114.06562 | 32116 ft | 400 kts | 315° |
| 2026-05-06 23:17 | 42.25006 | -114.12272 | 32124 ft | 400 kts | 315° |
| 2026-05-06 23:18 | 42.28611 | -114.17987 | 32115 ft | 399 kts | 315° |
| 2026-05-06 23:18 | 42.32216 | -114.23622 | 32107 ft | 399 kts | 315° |
| 2026-05-06 23:19 | 42.35802 | -114.29354 | 32117 ft | 399 kts | 315° |
| 2026-05-06 23:19 | 42.39389 | -114.35112 | 32121 ft | 400 kts | 315° |
| 2026-05-06 23:20 | 42.42978 | -114.40859 | 32124 ft | 400 kts | 314° |
| 2026-05-06 23:20 | 42.46548 | -114.46570 | 32132 ft | 399 kts | 314° |
| 2026-05-06 23:21 | 42.50135 | -114.52309 | 32113 ft | 396 kts | 314° |
| 2026-05-06 23:21 | 42.51899 | -114.55131 | 31827 ft | 390 kts | 314° |
| 2026-05-06 23:21 | 42.53629 | -114.57901 | 31524 ft | 381 kts | 314° |
| 2026-05-06 23:21 | 42.55337 | -114.60634 | 31141 ft | 377 kts | 315° |
| 2026-05-06 23:22 | 42.57025 | -114.63338 | 30706 ft | 374 kts | 315° |
| 2026-05-06 23:22 | 42.58701 | -114.66024 | 30300 ft | 371 kts | 315° |
| 2026-05-06 23:22 | 42.60360 | -114.68685 | 29888 ft | 368 kts | 315° |
| 2026-05-06 23:22 | 42.61987 | -114.71298 | 29455 ft | 366 kts | 315° |
| 2026-05-06 23:23 | 42.63622 | -114.73927 | 29032 ft | 363 kts | 314° |
| 2026-05-06 23:23 | 42.65243 | -114.76537 | 28608 ft | 360 kts | 314° |
| 2026-05-06 23:23 | 42.66855 | -114.79135 | 28192 ft | 357 kts | 314° |
| 2026-05-06 23:23 | 42.68449 | -114.81704 | 27757 ft | 354 kts | 314° |
| 2026-05-06 23:24 | 42.70033 | -114.84258 | 27342 ft | 352 kts | 314° |
| 2026-05-06 23:24 | 42.71600 | -114.86790 | 26932 ft | 349 kts | 314° |
| 2026-05-06 23:24 | 42.73192 | -114.89270 | 26458 ft | 347 kts | 316° |
| 2026-05-06 23:24 | 42.74828 | -114.91619 | 26032 ft | 345 kts | 317° |
| 2026-05-06 23:25 | 42.76488 | -114.93956 | 25618 ft | 343 kts | 318° |
| 2026-05-06 23:25 | 42.78138 | -114.96282 | 25203 ft | 340 kts | 318° |
| 2026-05-06 23:25 | 42.79770 | -114.98596 | 24818 ft | 337 kts | 317° |
| 2026-05-06 23:25 | 42.81389 | -115.00901 | 24404 ft | 335 kts | 317° |
| 2026-05-06 23:26 | 42.82988 | -115.03189 | 24012 ft | 332 kts | 317° |
| 2026-05-06 23:26 | 42.84573 | -115.05463 | 23625 ft | 330 kts | 317° |
| 2026-05-06 23:26 | 42.86148 | -115.07726 | 23244 ft | 327 kts | 317° |
| 2026-05-06 23:26 | 42.87688 | -115.09941 | 22861 ft | 325 kts | 317° |
| 2026-05-06 23:27 | 42.89240 | -115.12173 | 22474 ft | 323 kts | 317° |
| 2026-05-06 23:27 | 42.90782 | -115.14395 | 22090 ft | 321 kts | 317° |
| 2026-05-06 23:27 | 42.92310 | -115.16601 | 21684 ft | 320 kts | 317° |
| 2026-05-06 23:27 | 42.93838 | -115.18814 | 21265 ft | 319 kts | 317° |
| 2026-05-06 23:28 | 42.95355 | -115.21015 | 20869 ft | 318 kts | 317° |
| 2026-05-06 23:28 | 42.96864 | -115.23206 | 20500 ft | 316 kts | 316° |
| 2026-05-06 23:28 | 42.98344 | -115.25357 | 20118 ft | 314 kts | 317° |
| 2026-05-06 23:28 | 42.99833 | -115.27523 | 19766 ft | 312 kts | 316° |
| 2026-05-06 23:29 | 43.01312 | -115.29676 | 19399 ft | 310 kts | 316° |
| 2026-05-06 23:29 | 43.02781 | -115.31815 | 19032 ft | 308 kts | 317° |
| 2026-05-06 23:29 | 43.04240 | -115.33939 | 18675 ft | 305 kts | 316° |
| 2026-05-06 23:29 | 43.05685 | -115.36048 | 18319 ft | 303 kts | 316° |
| 2026-05-06 23:30 | 43.07121 | -115.38147 | 17964 ft | 302 kts | 316° |
| 2026-05-06 23:30 | 43.08549 | -115.40235 | 17614 ft | 300 kts | 316° |
| 2026-05-06 23:30 | 43.09973 | -115.42311 | 17224 ft | 299 kts | 316° |
| 2026-05-06 23:30 | 43.11372 | -115.44360 | 16852 ft | 298 kts | 316° |
| 2026-05-06 23:31 | 43.12781 | -115.46421 | 16491 ft | 296 kts | 316° |
| 2026-05-06 23:31 | 43.14186 | -115.48478 | 16141 ft | 295 kts | 316° |
| 2026-05-06 23:31 | 43.15587 | -115.50528 | 15725 ft | 296 kts | 315° |
| 2026-05-06 23:31 | 43.16992 | -115.52583 | 15371 ft | 294 kts | 315° |
| 2026-05-06 23:32 | 43.18388 | -115.54627 | 15016 ft | 293 kts | 315° |
| 2026-05-06 23:32 | 43.19778 | -115.56661 | 14753 ft | 289 kts | 315° |
| 2026-05-06 23:32 | 43.21127 | -115.58640 | 14629 ft | 280 kts | 315° |
| 2026-05-06 23:32 | 43.22440 | -115.60566 | 14497 ft | 272 kts | 315° |
| 2026-05-06 23:33 | 43.23708 | -115.62428 | 14219 ft | 272 kts | 315° |
| 2026-05-06 23:33 | 43.25006 | -115.64331 | 13942 ft | 275 kts | 314° |
| 2026-05-06 23:33 | 43.26323 | -115.66264 | 13644 ft | 280 kts | 314° |
| 2026-05-06 23:33 | 43.27620 | -115.68288 | 13330 ft | 286 kts | 306° |
| 2026-05-06 23:34 | 43.28575 | -115.70707 | 13013 ft | 288 kts | 297° |
| 2026-05-06 23:34 | 43.29435 | -115.73181 | 12736 ft | 283 kts | 298° |
| 2026-05-06 23:34 | 43.30275 | -115.75498 | 12667 ft | 260 kts | 298° |
| 2026-05-06 23:34 | 43.30801 | -115.76929 | 12567 ft | 248 kts | 298° |
| 2026-05-06 23:35 | 43.31552 | -115.78960 | 12424 ft | 230 kts | 298° |
| 2026-05-06 23:35 | 43.32473 | -115.81432 | 12173 ft | 212 kts | 298° |
| 2026-05-06 23:35 | 43.33142 | -115.83222 | 11748 ft | 211 kts | 298° |
| 2026-05-06 23:35 | 43.33812 | -115.85021 | 11279 ft | 212 kts | 298° |
| 2026-05-06 23:36 | 43.34476 | -115.86803 | 10959 ft | 208 kts | 298° |
| 2026-05-06 23:36 | 43.34914 | -115.87977 | 10779 ft | 209 kts | 298° |
| 2026-05-06 23:36 | 43.35579 | -115.89762 | 10525 ft | 211 kts | 298° |
| 2026-05-06 23:36 | 43.36253 | -115.91574 | 10279 ft | 213 kts | 298° |
| 2026-05-06 23:37 | 43.36920 | -115.93367 | 10176 ft | 209 kts | 298° |
| 2026-05-06 23:37 | 43.37790 | -115.95710 | 10023 ft | 206 kts | 298° |
| 2026-05-06 23:37 | 43.38234 | -115.96907 | 9881 ft | 211 kts | 297° |
| 2026-05-06 23:37 | 43.39133 | -115.99328 | 9596 ft | 217 kts | 297° |
| 2026-05-06 23:38 | 43.39821 | -116.01186 | 9364 ft | 218 kts | 297° |
| 2026-05-06 23:38 | 43.40275 | -116.02415 | 9205 ft | 216 kts | 297° |
| 2026-05-06 23:38 | 43.40952 | -116.04239 | 8966 ft | 213 kts | 297° |
| 2026-05-06 23:38 | 43.41618 | -116.06041 | 8745 ft | 210 kts | 297° |
| 2026-05-06 23:39 | 43.42282 | -116.07831 | 8518 ft | 210 kts | 297° |
| 2026-05-06 23:39 | 43.42942 | -116.09615 | 8291 ft | 210 kts | 297° |
| 2026-05-06 23:39 | 43.43601 | -116.11397 | 8075 ft | 208 kts | 297° |
| 2026-05-06 23:39 | 43.44255 | -116.13169 | 7854 ft | 208 kts | 297° |
| 2026-05-06 23:40 | 43.44905 | -116.14938 | 7638 ft | 207 kts | 297° |
| 2026-05-06 23:40 | 43.45550 | -116.16687 | 7514 ft | 201 kts | 297° |
| 2026-05-06 23:40 | 43.46173 | -116.18373 | 7422 ft | 201 kts | 297° |
| 2026-05-06 23:40 | 43.46794 | -116.20115 | 7353 ft | 205 kts | 296° |
| 2026-05-06 23:41 | 43.47416 | -116.21912 | 7259 ft | 209 kts | 295° |
| 2026-05-06 23:41 | 43.48026 | -116.23719 | 7151 ft | 208 kts | 295° |
| 2026-05-06 23:41 | 43.48637 | -116.25517 | 7069 ft | 207 kts | 295° |
| 2026-05-06 23:41 | 43.49181 | -116.27339 | 6974 ft | 206 kts | 284° |
| 2026-05-06 23:42 | 43.49354 | -116.29288 | 6898 ft | 205 kts | 274° |
| 2026-05-06 23:42 | 43.49388 | -116.31268 | 6795 ft | 207 kts | 272° |
| 2026-05-06 23:42 | 43.49406 | -116.33248 | 6720 ft | 206 kts | 271° |
| 2026-05-06 23:42 | 43.49416 | -116.35206 | 6671 ft | 209 kts | 272° |
| 2026-05-06 23:43 | 43.49433 | -116.37199 | 6637 ft | 208 kts | 272° |
| 2026-05-06 23:43 | 43.49446 | -116.39187 | 6600 ft | 208 kts | 272° |
| 2026-05-06 23:43 | 43.49462 | -116.41171 | 6573 ft | 207 kts | 272° |
| 2026-05-06 23:43 | 43.49475 | -116.43144 | 6569 ft | 205 kts | 272° |
| 2026-05-06 23:44 | 43.49472 | -116.45102 | 6558 ft | 203 kts | 271° |
| 2026-05-06 23:44 | 43.49479 | -116.47045 | 6571 ft | 203 kts | 271° |
| 2026-05-06 23:44 | 43.49485 | -116.48998 | 6571 ft | 204 kts | 271° |
| 2026-05-06 23:44 | 43.49497 | -116.50945 | 6572 ft | 204 kts | 272° |
| 2026-05-06 23:45 | 43.49514 | -116.52906 | 6530 ft | 208 kts | 272° |
| 2026-05-06 23:45 | 43.49528 | -116.54911 | 6268 ft | 214 kts | 271° |
| 2026-05-06 23:45 | 43.49540 | -116.56957 | 6056 ft | 211 kts | 272° |
| 2026-05-06 23:45 | 43.49559 | -116.58948 | 5986 ft | 206 kts | 273° |
| 2026-05-06 23:46 | 43.49586 | -116.60907 | 5978 ft | 203 kts | 272° |
| 2026-05-06 23:46 | 43.49602 | -116.62867 | 5969 ft | 205 kts | 271° |
| 2026-05-06 23:46 | 43.49616 | -116.64833 | 5973 ft | 206 kts | 272° |
| 2026-05-06 23:46 | 43.49704 | -116.66802 | 5954 ft | 206 kts | 286° |
| 2026-05-06 23:47 | 43.50448 | -116.68425 | 5981 ft | 203 kts | 322° |
| 2026-05-06 23:47 | 43.51733 | -116.69103 | 5980 ft | 205 kts | 357° |
| 2026-05-06 23:47 | 43.53160 | -116.68929 | 5996 ft | 207 kts | 5° |
| 2026-05-06 23:47 | 43.54543 | -116.68336 | 5971 ft | 212 kts | 32° |
| 2026-05-06 23:48 | 43.55519 | -116.66831 | 5985 ft | 213 kts | 57° |
| 2026-05-06 23:48 | 43.56322 | -116.65107 | 5982 ft | 214 kts | 54° |
| 2026-05-06 23:48 | 43.57149 | -116.63384 | 5970 ft | 216 kts | 55° |
| 2026-05-06 23:48 | 43.57966 | -116.61651 | 5977 ft | 215 kts | 55° |
| 2026-05-06 23:49 | 43.58785 | -116.59922 | 5973 ft | 215 kts | 55° |
| 2026-05-06 23:49 | 43.59574 | -116.58255 | 5978 ft | 205 kts | 54° |
| 2026-05-06 23:49 | 43.60331 | -116.56651 | 5966 ft | 194 kts | 54° |
| 2026-05-06 23:49 | 43.61064 | -116.55092 | 5964 ft | 192 kts | 55° |
| 2026-05-06 23:50 | 43.61784 | -116.53548 | 5962 ft | 191 kts | 55° |
| 2026-05-06 23:50 | 43.63241 | -116.50444 | 5971 ft | 194 kts | 55° |
| 2026-05-06 23:50 | 43.63979 | -116.48878 | 5966 ft | 195 kts | 55° |
| 2026-05-06 23:51 | 43.64510 | -116.47159 | 5943 ft | 198 kts | 84° |
| 2026-05-06 23:51 | 43.64244 | -116.45333 | 5911 ft | 194 kts | 112° |
| 2026-05-06 23:51 | 43.63692 | -116.43677 | 5648 ft | 192 kts | 116° |
| 2026-05-06 23:51 | 43.63114 | -116.42028 | 5388 ft | 191 kts | 117° |
| 2026-05-06 23:52 | 43.62544 | -116.40394 | 5137 ft | 187 kts | 117° |
| 2026-05-06 23:52 | 43.61983 | -116.38784 | 4865 ft | 185 kts | 116° |
| 2026-05-06 23:52 | 43.61430 | -116.37189 | 4631 ft | 184 kts | 116° |
| 2026-05-06 23:52 | 43.60862 | -116.35572 | 4608 ft | 196 kts | 115° |
| 2026-05-06 23:53 | 43.60253 | -116.33814 | 4343 ft | 206 kts | 116° |
| 2026-05-06 23:53 | 43.59652 | -116.32049 | 4089 ft | 201 kts | 115° |
| 2026-05-06 23:53 | 43.59079 | -116.30368 | 3827 ft | 190 kts | 114° |
| 2026-05-06 23:53 | 43.58544 | -116.28790 | 3626 ft | 173 kts | 113° |
| 2026-05-06 23:54 | 43.58050 | -116.27337 | 3428 ft | 162 kts | 114° |
| 2026-05-06 23:54 | 43.57582 | -116.25962 | 3180 ft | 155 kts | 114° |
| 2026-05-06 23:54 | 43.57133 | -116.24635 | 2964 ft | 151 kts | 113° |
| 2026-05-06 23:54 | 43.56721 | -116.23394 | 2881 ft | 131 kts | 115° |
| 2026-05-06 23:55 | 43.56411 | -116.22509 | 2880 ft | 71 kts | 114° |
| 2026-05-06 23:55 | 43.56294 | -116.22164 | 2878 ft | 15 kts | 117° |
| 2026-05-06 23:55 | 43.56247 | -116.22027 | 2879 ft | 16 kts | 114° |
| 2026-05-06 23:55 | 43.56204 | -116.21894 | 2879 ft | 15 kts | 114° |
| 2026-05-06 23:56 | 43.56158 | -116.21768 | 2880 ft | 14 kts | 122° |
| 2026-05-06 23:56 | 43.56084 | -116.21686 | 2881 ft | 14 kts | 172° |
| 2026-05-06 23:56 | 43.56013 | -116.21760 | 2881 ft | 13 kts | 223° |
| 2026-05-06 23:56 | 43.55987 | -116.21715 | 2881 ft | 3 kts | 68° |
| 2026-05-06 23:57 | 43.55981 | -116.21653 | 2881 ft | 12 kts | 107° |
| 2026-05-06 23:57 | 43.55940 | -116.21529 | 2881 ft | 15 kts | 115° |
| 2026-05-06 23:57 | 43.55899 | -116.21402 | 2880 ft | 14 kts | 100° |
| 2026-05-06 23:57 | 43.55954 | -116.21307 | 2879 ft | 14 kts | 24° |
| 2026-05-06 23:58 | 43.56041 | -116.21256 | 2881 ft | 14 kts | 22° |
| 2026-05-06 23:58 | 43.56132 | -116.21203 | 2882 ft | 14 kts | 24° |
| 2026-05-06 23:58 | 43.56218 | -116.21149 | 2882 ft | 13 kts | 23° |
| 2026-05-06 23:58 | 43.56291 | -116.21203 | 2881 ft | 14 kts | 300° |
| 2026-05-06 23:59 | 43.56334 | -116.21329 | 2881 ft | 15 kts | 294° |
| 2026-05-06 23:59 | 43.56378 | -116.21461 | 2881 ft | 16 kts | 295° |
| 2026-05-06 23:59 | 43.56426 | -116.21599 | 2880 ft | 17 kts | 295° |
| 2026-05-06 23:59 | 43.56487 | -116.21726 | 2880 ft | 16 kts | 336° |
| 2026-05-07 00:00 | 43.56594 | -116.21750 | 2880 ft | 14 kts | 0° |
| 2026-05-07 00:00 | 43.56653 | -116.21723 | 2880 ft | 9 kts | 30° |
| 2026-05-07 00:00 | 43.56708 | -116.21752 | 2880 ft | 9 kts | 339° |
| 2026-05-07 00:00 | 43.56765 | -116.21730 | 2880 ft | 9 kts | 60° |
| 2026-05-07 00:01 | 43.56740 | -116.21663 | 2880 ft | 9 kts | 169° |
| 2026-05-07 00:01 | 43.56683 | -116.21686 | 2880 ft | 4 kts | 202° |
| 2026-05-07 00:01 | 43.56681 | -116.21687 | 2880 ft | 0 kts | 204° |